Time;durP1;ratioP1;P1;durP2;ratioP2;P2;SDS_P1;SDS_P2;PMS_P1;PMS_P2;Temp;Humidity;BMP_temperature;BMP_pressure;BME280_temperature;BME280_humidity;BME280_pressure;Samples;Min_cycle;Max_cycle;Signal;HPM_P1;HPM_P2
2023/03/14 00:01:52;;;;;;;1.10;0.90;;;10.60;99.90;;;;;;5116202;27;20184;-43
2023/03/14 00:04:18;;;;;;;1.17;0.70;;;10.60;99.90;;;;;;5100738;28;20192;-43
2023/03/14 00:06:46;;;;;;;1.30;1.17;;;10.60;99.90;;;;;;5131809;27;20177;-43
2023/03/14 00:09:13;;;;;;;1.63;1.00;;;10.60;99.90;;;;;;5097209;27;20272;-43
2023/03/14 00:11:39;;;;;;;1.50;1.13;;;10.70;99.90;;;;;;5113323;27;20183;-43
2023/03/14 00:14:04;;;;;;;0.80;0.80;;;10.70;99.90;;;;;;5122250;27;20201;-43
2023/03/14 00:16:30;;;;;;;1.37;0.80;;;10.60;99.90;;;;;;5119933;27;20182;-43
2023/03/14 00:18:58;;;;;;;1.43;0.90;;;10.60;99.90;;;;;;5098964;28;20189;-42
2023/03/14 00:21:24;;;;;;;1.23;0.80;;;10.60;99.90;;;;;;5104992;27;20194;-42
2023/03/14 00:23:50;;;;;;;0.70;0.60;;;10.60;99.90;;;;;;5114539;27;20195;-43
2023/03/14 00:26:18;;;;;;;0.77;0.60;;;10.60;99.90;;;;;;5113616;27;20177;-42
2023/03/14 00:28:44;;;;;;;1.37;0.60;;;10.50;99.90;;;;;;5125030;27;20284;-43
2023/03/14 00:31:13;;;;;;;0.43;0.43;;;10.50;99.90;;;;;;5095629;27;20207;-43
2023/03/14 00:33:40;;;;;;;1.53;0.70;;;10.60;99.90;;;;;;5114414;27;20194;-43
2023/03/14 00:36:09;;;;;;;0.60;0.60;;;10.60;99.90;;;;;;5099532;27;20219;-43
2023/03/14 00:38:37;;;;;;;0.50;0.50;;;10.60;99.90;;;;;;5120183;27;20190;-43
2023/03/14 00:41:06;;;;;;;1.23;0.50;;;10.60;99.90;;;;;;5112038;27;20600;-42
2023/03/14 00:43:32;;;;;;;0.50;0.50;;;10.60;99.90;;;;;;5099506;28;20204;-42
2023/03/14 00:45:58;;;;;;;1.53;0.60;;;10.60;99.90;;;;;;5102420;27;20179;-43
2023/03/14 00:48:26;;;;;;;1.87;0.50;;;10.60;99.90;;;;;;5087708;28;20208;-43
2023/03/14 00:50:52;;;;;;;0.60;0.60;;;10.50;99.90;;;;;;5079725;27;20184;-43
2023/03/14 00:53:18;;;;;;;1.07;0.60;;;10.50;99.90;;;;;;5095985;27;20183;-42
2023/03/14 00:55:45;;;;;;;2.20;0.60;;;10.50;99.90;;;;;;5113474;28;20181;-42
2023/03/14 00:58:13;;;;;;;0.60;0.60;;;10.50;99.90;;;;;;5097099;28;20172;-43
2023/03/14 01:00:39;;;;;;;1.30;0.77;;;10.50;99.90;;;;;;5105833;28;20177;-44
2023/03/14 01:03:06;;;;;;;0.67;0.67;;;10.50;99.90;;;;;;5095184;28;20176;-42
2023/03/14 01:05:32;;;;;;;1.60;0.67;;;10.50;99.90;;;;;;5094854;28;20185;-43
2023/03/14 01:07:58;;;;;;;0.80;0.60;;;10.40;99.90;;;;;;5100958;27;20186;-42
2023/03/14 01:10:24;;;;;;;0.67;0.50;;;10.40;99.90;;;;;;5114726;27;20175;-42
2023/03/14 01:12:50;;;;;;;0.97;0.77;;;10.40;99.90;;;;;;5114075;27;20176;-43
2023/03/14 01:15:16;;;;;;;1.33;0.50;;;10.40;99.90;;;;;;5114344;27;20236;-43
2023/03/14 01:17:41;;;;;;;1.67;0.70;;;10.40;99.90;;;;;;5096156;27;20172;-42
2023/03/14 01:20:11;;;;;;;0.63;0.63;;;10.40;99.90;;;;;;5102566;28;20664;-43
2023/03/14 01:22:39;;;;;;;0.60;0.57;;;10.40;99.90;;;;;;5094777;28;20179;-42
2023/03/14 01:25:09;;;;;;;1.63;0.60;;;10.40;99.90;;;;;;5113888;27;20290;-42
2023/03/14 01:27:34;;;;;;;0.50;0.50;;;10.40;99.90;;;;;;5104993;27;20190;-43
2023/03/14 01:30:00;;;;;;;0.50;0.47;;;10.40;99.90;;;;;;5100539;27;20199;-42
2023/03/14 01:32:27;;;;;;;2.33;0.60;;;10.40;99.90;;;;;;5093337;28;20168;-43
2023/03/14 01:34:52;;;;;;;0.40;0.40;;;10.40;99.90;;;;;;5094250;28;20241;-44
2023/03/14 01:37:18;;;;;;;0.43;0.40;;;10.40;99.90;;;;;;5095561;28;20180;-43
2023/03/14 01:39:47;;;;;;;0.40;0.40;;;10.40;99.90;;;;;;5101135;27;20190;-43
2023/03/14 01:42:14;;;;;;;0.93;0.50;;;10.40;99.90;;;;;;5107431;28;20322;-42
2023/03/14 01:45:26;;;;;;;0.50;0.50;;;10.40;99.90;;;;;;5113493;27;20290;-40
2023/03/14 01:47:52;;;;;;;1.30;0.60;;;10.40;99.90;;;;;;5093237;28;20180;-42
2023/03/14 01:50:18;;;;;;;0.60;0.60;;;10.30;99.90;;;;;;5077074;28;20200;-42
2023/03/14 01:52:52;;;;;;;0.40;0.40;;;10.20;99.90;;;;;;5112362;27;20171;-42
2023/03/14 01:55:24;;;;;;;0.50;0.50;;;10.20;99.90;;;;;;5095570;27;20195;-43
2023/03/14 01:57:59;;;;;;;0.70;0.70;;;10.20;99.90;;;;;;5101707;28;20204;-41
2023/03/14 02:00:25;;;;;;;0.87;0.50;;;10.20;99.90;;;;;;5093962;28;20177;-42
2023/03/14 02:02:55;;;;;;;0.50;0.50;;;10.20;99.90;;;;;;5107289;27;20186;-42
2023/03/14 02:05:32;;;;;;;1.60;0.57;;;10.20;99.90;;;;;;5112428;27;20202;-42
2023/03/14 02:08:09;;;;;;;0.50;0.40;;;10.20;99.90;;;;;;5112099;27;20183;-42
2023/03/14 02:10:45;;;;;;;0.80;0.50;;;10.10;99.90;;;;;;5107056;27;20248;-42
2023/03/14 02:13:12;;;;;;;3.17;1.10;;;10.10;99.90;;;;;;5094807;27;20229;-42
2023/03/14 02:15:58;;;;;;;0.50;0.50;;;10.10;99.90;;;;;;5115527;27;20167;-43
2023/03/14 02:18:37;;;;;;;1.67;0.50;;;10.00;99.90;;;;;;5092984;28;20179;-43
2023/03/14 02:21:40;;;;;;;0.40;0.40;;;10.10;99.90;;;;;;5114128;27;20180;-42
2023/03/14 02:24:16;;;;;;;1.20;0.50;;;10.10;99.90;;;;;;5098465;28;20315;-42
2023/03/14 02:27:08;;;;;;;0.40;0.40;;;10.10;99.90;;;;;;5096634;27;20200;-42
2023/03/14 02:29:45;;;;;;;0.50;0.50;;;10.10;99.90;;;;;;5111189;27;20195;-42
2023/03/14 02:32:13;;;;;;;0.87;0.60;;;10.10;99.90;;;;;;5079082;27;20168;-40
2023/03/14 02:34:41;;;;;;;1.50;0.67;;;10.00;99.90;;;;;;5076274;28;20195;-42
2023/03/14 02:37:07;;;;;;;0.77;0.50;;;10.10;99.90;;;;;;5094517;28;20285;-42
2023/03/14 02:39:38;;;;;;;0.50;0.50;;;10.10;99.90;;;;;;5105914;27;20210;-42
2023/03/14 02:42:05;;;;;;;1.00;0.50;;;10.10;99.90;;;;;;5131068;27;20198;-42
2023/03/14 02:44:31;;;;;;;0.50;0.50;;;10.10;99.90;;;;;;5096083;28;20242;-41
2023/03/14 02:46:58;;;;;;;0.77;0.70;;;10.00;99.90;;;;;;5094924;28;20212;-40
2023/03/14 02:49:26;;;;;;;0.57;0.50;;;10.00;99.90;;;;;;5094204;28;20195;-43
2023/03/14 02:51:52;;;;;;;0.70;0.57;;;10.00;99.90;;;;;;5099069;28;20215;-42
2023/03/14 02:54:20;;;;;;;0.70;0.70;;;10.00;99.90;;;;;;5128314;27;20234;-43
2023/03/14 02:56:47;;;;;;;1.03;0.50;;;9.90;99.90;;;;;;5096492;28;20329;-42
2023/03/14 02:59:13;;;;;;;0.70;0.50;;;9.90;99.90;;;;;;5104543;28;20262;-42
2023/03/14 03:01:45;;;;;;;0.60;0.60;;;9.90;99.90;;;;;;5105629;28;20217;-41
2023/03/14 03:04:10;;;;;;;1.27;0.60;;;9.90;99.90;;;;;;5131322;27;20223;-42
2023/03/14 03:06:36;;;;;;;1.47;0.70;;;9.80;99.90;;;;;;5102116;28;20176;-42
2023/03/14 03:09:02;;;;;;;0.67;0.67;;;9.90;99.90;;;;;;5117857;28;20191;-42
2023/03/14 03:11:28;;;;;;;1.03;0.70;;;9.80;99.90;;;;;;5096109;28;20179;-42
2023/03/14 03:13:54;;;;;;;0.73;0.60;;;9.80;99.90;;;;;;5092219;28;20198;-43
2023/03/14 03:16:21;;;;;;;0.50;0.50;;;9.80;99.90;;;;;;5093261;28;20648;-41
2023/03/14 03:18:46;;;;;;;1.00;0.60;;;9.80;99.90;;;;;;5099916;28;20305;-40
2023/03/14 03:21:12;;;;;;;0.50;0.50;;;9.80;99.90;;;;;;5113048;28;20671;-42
2023/03/14 03:23:38;;;;;;;0.53;0.50;;;9.70;99.90;;;;;;5099412;28;20207;-41
2023/03/14 03:26:05;;;;;;;0.53;0.53;;;9.80;99.90;;;;;;5097528;28;20175;-42
2023/03/14 03:28:31;;;;;;;2.80;0.77;;;9.70;99.90;;;;;;5111040;28;20195;-42
2023/03/14 03:30:58;;;;;;;1.40;0.70;;;9.70;99.90;;;;;;5092699;28;20212;-42
2023/03/14 03:33:24;;;;;;;0.60;0.60;;;9.70;99.90;;;;;;5113276;28;20221;-42
2023/03/14 03:35:52;;;;;;;2.77;0.90;;;9.70;99.90;;;;;;5095159;28;20183;-42
2023/03/14 03:38:31;;;;;;;0.60;0.60;;;9.70;99.90;;;;;;5093992;28;20172;-42
2023/03/14 03:41:03;;;;;;;0.83;0.60;;;9.70;99.90;;;;;;5106167;28;20187;-42
2023/03/14 03:43:29;;;;;;;0.63;0.60;;;9.60;99.90;;;;;;5130129;27;20206;-41
2023/03/14 03:45:56;;;;;;;1.53;0.60;;;9.60;99.90;;;;;;5080983;28;20195;-42
2023/03/14 03:48:23;;;;;;;0.87;0.60;;;9.60;99.90;;;;;;5092535;28;20203;-42
2023/03/14 03:50:48;;;;;;;0.90;0.70;;;9.60;99.90;;;;;;5109176;28;20184;-42
2023/03/14 03:53:19;;;;;;;3.67;0.80;;;9.50;99.90;;;;;;5097465;28;20225;-42
2023/03/14 03:55:45;;;;;;;1.10;0.73;;;9.50;99.90;;;;;;5109870;27;20176;-41
2023/03/14 03:58:11;;;;;;;1.80;0.60;;;9.50;99.90;;;;;;5103055;28;20235;-42
2023/03/14 04:00:36;;;;;;;2.83;0.70;;;9.50;99.90;;;;;;5113844;27;20246;-40
2023/03/14 04:03:02;;;;;;;1.40;0.67;;;9.50;99.90;;;;;;5109392;28;20175;-40
2023/03/14 04:05:28;;;;;;;0.70;0.60;;;9.40;99.90;;;;;;5106336;27;20190;-42
2023/03/14 04:08:00;;;;;;;1.60;0.77;;;9.50;99.90;;;;;;5109852;27;20323;-42
2023/03/14 04:10:28;;;;;;;3.57;1.57;;;9.40;99.90;;;;;;5112648;27;20207;-41
2023/03/14 04:13:09;;;;;;;2.43;1.00;;;9.40;99.90;;;;;;5100898;27;20176;-42
2023/03/14 04:15:36;;;;;;;1.50;1.03;;;9.40;99.90;;;;;;5116030;27;20175;-40
2023/03/14 04:18:08;;;;;;;1.70;1.40;;;9.30;99.90;;;;;;5113576;27;20175;-42
2023/03/14 04:20:35;;;;;;;2.87;1.97;;;9.30;99.90;;;;;;5120042;27;20174;-42
2023/03/14 04:23:02;;;;;;;2.60;1.10;;;9.30;99.90;;;;;;5105093;27;20566;-41
2023/03/14 04:25:28;;;;;;;2.27;1.10;;;9.30;99.90;;;;;;5085695;28;20182;-42
2023/03/14 04:27:56;;;;;;;2.67;0.83;;;9.30;99.90;;;;;;5096663;28;20203;-42
2023/03/14 04:30:25;;;;;;;2.47;1.50;;;9.20;99.90;;;;;;5110831;27;20219;-42
2023/03/14 04:32:54;;;;;;;2.80;1.40;;;9.20;99.90;;;;;;5114621;27;20179;-42
2023/03/14 04:35:23;;;;;;;1.33;0.90;;;9.20;99.90;;;;;;5114933;27;20210;-42
2023/03/14 04:37:53;;;;;;;2.83;0.83;;;9.20;99.90;;;;;;5115666;27;20260;-40
2023/03/14 04:40:20;;;;;;;1.10;0.70;;;9.20;99.90;;;;;;5111908;27;20221;-41
2023/03/14 04:42:48;;;;;;;3.30;0.80;;;9.20;99.90;;;;;;5097907;27;20176;-42
2023/03/14 04:45:15;;;;;;;1.37;0.90;;;9.20;99.90;;;;;;5108997;27;20199;-42
2023/03/14 04:47:43;;;;;;;3.23;0.83;;;9.20;99.90;;;;;;5106273;28;20176;-42
2023/03/14 04:50:12;;;;;;;1.10;0.60;;;9.20;99.90;;;;;;5108058;27;20195;-42
2023/03/14 04:52:38;;;;;;;2.43;0.70;;;9.20;99.90;;;;;;5097615;27;20244;-41
2023/03/14 04:55:05;;;;;;;2.07;1.00;;;9.10;99.90;;;;;;5090264;27;20195;-42
2023/03/14 04:57:31;;;;;;;2.67;1.50;;;9.10;99.90;;;;;;5104695;27;20238;-42
2023/03/14 04:59:57;;;;;;;1.70;0.63;;;9.10;99.90;;;;;;5104557;27;20266;-41
2023/03/14 05:02:45;;;;;;;1.77;1.00;;;9.20;99.90;;;;;;5134253;27;20174;-43
2023/03/14 05:05:23;;;;;;;1.33;0.90;;;9.20;99.90;;;;;;5147327;27;20203;-42
2023/03/14 05:08:12;;;;;;;2.00;0.70;;;9.10;99.90;;;;;;5100306;28;20215;-42
2023/03/14 05:10:41;;;;;;;1.60;0.73;;;9.10;99.90;;;;;;5128242;27;20179;-41
2023/03/14 05:13:15;;;;;;;3.23;1.50;;;9.10;99.90;;;;;;5133928;27;20182;-41
2023/03/14 05:16:07;;;;;;;2.53;0.87;;;9.10;99.90;;;;;;5108604;28;20191;-42
2023/03/14 05:18:45;;;;;;;4.47;0.90;;;9.10;99.90;;;;;;5112822;28;20183;-42
2023/03/14 05:21:34;;;;;;;1.90;0.80;;;9.10;99.90;;;;;;5109750;27;20195;-41
2023/03/14 05:24:23;;;;;;;1.60;0.80;;;9.10;99.90;;;;;;5116405;27;20223;-42
2023/03/14 05:27:08;;;;;;;3.27;0.90;;;9.10;99.90;;;;;;5121272;27;20244;-42
2023/03/14 05:29:35;;;;;;;2.90;1.23;;;9.10;99.90;;;;;;5094607;28;20260;-42
2023/03/14 05:32:17;;;;;;;3.80;1.20;;;9.10;99.90;;;;;;5098278;28;20179;-42
2023/03/14 05:35:16;;;;;;;2.20;1.00;;;9.10;99.90;;;;;;5089351;27;20246;-42
2023/03/14 05:38:10;;;;;;;4.73;1.27;;;9.10;99.90;;;;;;5049349;28;20220;-42
2023/03/14 05:40:45;;;;;;;3.23;1.30;;;9.10;99.90;;;;;;5109917;27;20257;-40
2023/03/14 05:43:35;;;;;;;1.87;0.80;;;9.10;99.90;;;;;;5097457;28;20204;-40
2023/03/14 05:46:30;;;;;;;3.53;1.70;;;9.10;99.90;;;;;;5056004;28;20174;-41
2023/03/14 05:49:22;;;;;;;1.73;1.17;;;9.10;99.90;;;;;;5087861;27;20199;-42
2023/03/14 05:51:59;;;;;;;3.80;0.93;;;9.10;99.90;;;;;;5114585;27;20175;-42
2023/03/14 05:54:25;;;;;;;1.20;0.90;;;9.10;99.90;;;;;;5130987;27;20210;-41
2023/03/14 05:57:14;;;;;;;2.20;0.70;;;9.10;99.90;;;;;;5111261;28;20194;-42
2023/03/14 05:59:58;;;;;;;3.03;0.90;;;9.10;99.90;;;;;;5098474;28;20214;-39
2023/03/14 06:02:50;;;;;;;2.20;0.90;;;9.10;99.90;;;;;;5120771;27;20223;-41
2023/03/14 06:05:24;;;;;;;2.40;0.90;;;9.20;99.90;;;;;;5105586;27;20198;-42
2023/03/14 06:07:56;;;;;;;2.97;0.90;;;9.20;99.90;;;;;;5125557;27;20182;-42
2023/03/14 06:10:23;;;;;;;1.30;0.50;;;9.20;99.90;;;;;;5112273;27;20203;-42
2023/03/14 06:12:49;;;;;;;3.10;1.03;;;9.10;99.90;;;;;;5096575;27;20176;-42
2023/03/14 06:15:15;;;;;;;3.03;0.90;;;9.20;99.90;;;;;;5112575;27;20191;-43
2023/03/14 06:17:42;;;;;;;2.13;1.17;;;9.20;99.90;;;;;;5115282;27;20167;-40
2023/03/14 06:20:12;;;;;;;2.27;1.30;;;9.10;99.90;;;;;;5102349;27;20179;-42
2023/03/14 06:22:39;;;;;;;3.23;1.27;;;9.10;99.90;;;;;;5121198;27;20202;-42
2023/03/14 06:25:06;;;;;;;3.13;1.00;;;9.10;99.90;;;;;;5117453;27;20210;-42
2023/03/14 06:27:33;;;;;;;2.20;0.83;;;9.10;99.90;;;;;;5114071;27;20193;-41
2023/03/14 06:29:59;;;;;;;3.77;1.00;;;9.10;99.90;;;;;;5110062;27;20222;-42
2023/03/14 06:32:29;;;;;;;3.93;1.00;;;9.10;99.90;;;;;;5101156;27;20175;-41
2023/03/14 06:37:34;;;;;;;1.97;0.90;;;9.20;99.90;;;;;;5047228;28;20585;-42
2023/03/14 06:40:01;;;;;;;1.80;1.00;;;9.10;99.90;;;;;;5045204;28;20269;-40
2023/03/14 06:42:48;;;;;;;2.10;0.80;;;9.20;99.90;;;;;;5043944;28;20179;-40
2023/03/14 06:45:16;;;;;;;2.57;1.10;;;9.20;99.90;;;;;;5074091;28;20198;-40
2023/03/14 06:47:42;;;;;;;1.40;0.87;;;9.10;99.90;;;;;;5049497;28;20190;-40
2023/03/14 06:50:10;;;;;;;5.83;2.20;;;9.10;99.90;;;;;;5049665;28;20209;-40
2023/03/14 06:52:36;;;;;;;5.63;3.90;;;9.10;99.90;;;;;;5066325;28;20264;-39
2023/03/14 06:55:03;;;;;;;9.47;4.43;;;9.10;99.90;;;;;;5065976;28;20198;-39
2023/03/14 06:57:30;;;;;;;7.30;3.27;;;9.20;99.90;;;;;;5049575;28;20269;-39
2023/03/14 06:59:56;;;;;;;5.73;1.63;;;9.20;99.90;;;;;;5049259;28;20266;-39
2023/03/14 07:02:23;;;;;;;3.07;2.00;;;9.20;99.90;;;;;;5066364;28;20177;-39
2023/03/14 07:04:49;;;;;;;3.93;1.80;;;9.30;99.90;;;;;;5049119;28;20343;-39
2023/03/14 07:07:16;;;;;;;2.70;1.90;;;9.30;99.90;;;;;;5049431;28;20185;-40
2023/03/14 07:09:43;;;;;;;4.10;1.70;;;9.30;99.90;;;;;;5073279;28;20200;-39
2023/03/14 07:12:09;;;;;;;1.87;1.00;;;9.40;99.90;;;;;;5077113;28;20181;-39
2023/03/14 07:14:35;;;;;;;2.33;0.90;;;9.40;99.90;;;;;;5082352;28;20205;-39
2023/03/14 07:17:01;;;;;;;8.03;1.00;;;9.40;99.90;;;;;;5032857;28;20197;-40
2023/03/14 07:19:27;;;;;;;2.97;0.90;;;9.50;99.90;;;;;;5049146;28;20216;-39
2023/03/14 07:21:52;;;;;;;1.07;0.70;;;9.50;99.90;;;;;;5049541;28;20272;-41
2023/03/14 07:24:23;;;;;;;2.80;1.10;;;9.50;99.90;;;;;;5033421;28;20198;-39
2023/03/14 07:26:48;;;;;;;1.10;0.77;;;9.60;99.90;;;;;;5032925;28;20276;-40
2023/03/14 07:29:14;;;;;;;2.97;0.77;;;9.70;99.90;;;;;;5032458;28;20262;-40
2023/03/14 07:31:41;;;;;;;1.47;0.70;;;9.80;99.90;;;;;;5050884;28;20178;-40
2023/03/14 07:34:07;;;;;;;2.37;0.90;;;9.90;99.90;;;;;;5035942;28;20210;-40
2023/03/14 07:36:36;;;;;;;1.53;0.70;;;10.00;99.90;;;;;;5036832;28;20186;-40
2023/03/14 07:39:04;;;;;;;2.20;0.67;;;10.10;99.90;;;;;;5054795;28;20178;-37
2023/03/14 07:41:41;;;;;;;1.50;0.70;;;10.20;99.90;;;;;;5065970;28;20196;-41
2023/03/14 07:44:36;;;;;;;3.73;0.90;;;10.20;99.90;;;;;;5077779;28;20544;-39
2023/03/14 07:47:02;;;;;;;1.50;0.80;;;10.30;99.90;;;;;;5056258;28;20188;-40
2023/03/14 07:49:28;;;;;;;1.53;0.50;;;10.30;99.90;;;;;;5072442;28;20212;-37
2023/03/14 07:51:53;;;;;;;1.20;0.80;;;10.30;99.90;;;;;;5089851;28;20181;-39
2023/03/14 07:54:20;;;;;;;1.90;0.80;;;10.40;99.90;;;;;;5073814;28;20201;-40
2023/03/14 07:56:45;;;;;;;1.23;0.70;;;10.50;99.90;;;;;;5056012;28;20189;-38
2023/03/14 07:59:12;;;;;;;3.80;1.70;;;10.60;99.90;;;;;;5089311;28;20185;-37
2023/03/14 08:01:38;;;;;;;2.03;0.93;;;10.70;99.90;;;;;;5072399;28;20181;-37
2023/03/14 08:04:04;;;;;;;1.83;0.83;;;10.80;99.90;;;;;;5089436;28;20189;-37
2023/03/14 08:06:30;;;;;;;2.93;1.10;;;10.80;99.90;;;;;;5072447;28;20195;-38
2023/03/14 08:08:55;;;;;;;1.37;0.90;;;10.90;99.90;;;;;;5089164;28;20259;-40
2023/03/14 08:11:21;;;;;;;3.33;1.07;;;11.00;99.90;;;;;;5072520;28;20177;-38
2023/03/14 08:13:49;;;;;;;1.00;0.90;;;11.10;99.90;;;;;;5072162;28;20181;-38
2023/03/14 08:16:19;;;;;;;1.80;1.03;;;11.10;99.90;;;;;;5073682;28;20206;-39
2023/03/14 08:18:45;;;;;;;1.20;1.07;;;11.20;99.90;;;;;;5073637;28;20181;-39
2023/03/14 08:21:13;;;;;;;8.87;1.57;;;11.30;99.90;;;;;;5089284;28;20200;-39
2023/03/14 08:23:39;;;;;;;1.23;0.70;;;11.40;99.90;;;;;;5072998;28;20177;-37
2023/03/14 08:26:05;;;;;;;7.33;1.20;;;11.50;99.90;;;;;;5071613;28;20205;-39
2023/03/14 08:28:33;;;;;;;3.13;0.93;;;11.70;99.90;;;;;;5071361;28;20185;-37
2023/03/14 08:30:59;;;;;;;4.43;1.00;;;12.00;99.90;;;;;;5088985;28;20175;-37
2023/03/14 08:33:27;;;;;;;1.27;0.60;;;12.30;99.90;;;;;;5070094;28;20324;-38
2023/03/14 08:35:58;;;;;;;2.37;0.90;;;12.40;99.90;;;;;;5071274;28;20205;-39
2023/03/14 08:38:24;;;;;;;3.07;0.90;;;12.50;99.90;;;;;;5085792;28;20181;-39
2023/03/14 08:40:57;;;;;;;4.03;1.20;;;12.50;99.90;;;;;;5075868;28;20171;-37
2023/03/14 08:43:23;;;;;;;0.90;0.70;;;12.40;99.90;;;;;;5062364;28;20194;-37
2023/03/14 08:45:49;;;;;;;1.83;0.80;;;12.40;99.90;;;;;;5077343;28;20204;-39
2023/03/14 08:48:16;;;;;;;0.83;0.60;;;12.40;99.90;;;;;;5078957;28;20190;-46
2023/03/14 08:50:43;;;;;;;0.83;0.50;;;12.30;99.90;;;;;;5079536;28;20186;-40
2023/03/14 08:53:09;;;;;;;0.77;0.50;;;12.20;99.90;;;;;;5072230;28;20250;-39
2023/03/14 08:55:35;;;;;;;1.90;0.50;;;12.10;99.90;;;;;;5087245;28;20229;-39
2023/03/14 08:58:01;;;;;;;0.97;0.40;;;12.10;99.90;;;;;;5080718;28;20271;-39
2023/03/14 09:00:28;;;;;;;0.40;0.40;;;12.00;99.90;;;;;;5087199;28;20258;-37
2023/03/14 09:02:55;;;;;;;1.23;0.50;;;11.90;99.90;;;;;;5071110;28;20180;-37
2023/03/14 09:05:22;;;;;;;1.07;0.60;;;11.80;99.90;;;;;;5087244;28;20195;-39
2023/03/14 09:07:47;;;;;;;1.20;0.53;;;11.70;99.90;;;;;;5079985;28;20201;-38
2023/03/14 09:10:13;;;;;;;1.83;0.70;;;11.70;99.90;;;;;;5081683;28;20300;-39
2023/03/14 09:12:39;;;;;;;1.63;1.00;;;11.70;99.90;;;;;;5068742;28;20200;-38
2023/03/14 09:15:08;;;;;;;1.30;0.80;;;11.60;99.90;;;;;;5067305;28;20209;-39
2023/03/14 09:17:37;;;;;;;2.83;0.90;;;11.60;99.90;;;;;;5085094;28;20191;-37
2023/03/14 09:20:07;;;;;;;0.83;0.53;;;11.60;99.90;;;;;;5072989;28;20269;-42
2023/03/14 09:22:35;;;;;;;1.20;0.80;;;11.60;99.90;;;;;;5083822;28;20178;-37
2023/03/14 09:25:03;;;;;;;1.27;0.70;;;11.60;99.90;;;;;;5058834;28;20235;-39
2023/03/14 09:27:29;;;;;;;0.73;0.60;;;11.60;99.90;;;;;;5058116;28;20197;-37
2023/03/14 09:29:57;;;;;;;1.23;0.67;;;11.60;99.90;;;;;;5072262;28;20230;-38
2023/03/14 09:32:25;;;;;;;1.90;0.67;;;11.60;99.90;;;;;;5063108;28;20292;-39
2023/03/14 09:34:53;;;;;;;1.67;0.90;;;11.60;99.90;;;;;;5068391;28;20299;-39
2023/03/14 09:37:20;;;;;;;0.90;0.50;;;11.60;99.90;;;;;;5066860;28;20202;-39
2023/03/14 09:39:46;;;;;;;1.83;0.50;;;11.70;99.90;;;;;;5056553;28;20190;-38
2023/03/14 09:42:21;;;;;;;1.00;0.57;;;11.70;99.90;;;;;;5068894;28;20230;-40
2023/03/14 09:45:11;;;;;;;1.57;0.60;;;11.70;99.90;;;;;;5085034;28;20195;-39
2023/03/14 09:47:37;;;;;;;2.73;1.30;;;11.70;99.90;;;;;;5065720;28;20188;-38
2023/03/14 09:50:11;;;;;;;3.53;1.57;;;11.70;99.90;;;;;;5067145;28;20302;-40
2023/03/14 09:52:39;;;;;;;3.03;1.20;;;11.70;99.90;;;;;;5084161;28;20203;-40
2023/03/14 09:55:11;;;;;;;12.50;6.80;;;11.80;99.90;;;;;;5067454;28;20228;-40
2023/03/14 09:57:39;;;;;;;1.80;0.77;;;11.80;99.90;;;;;;5051010;28;20180;-38
2023/03/14 10:00:19;;;;;;;0.90;0.50;;;11.80;99.90;;;;;;5067942;28;20187;-39
2023/03/14 10:03:23;;;;;;;1.70;1.00;;;11.90;99.90;;;;;;5068469;28;20271;-37
2023/03/14 10:05:49;;;;;;;0.97;0.67;;;12.00;99.90;;;;;;5060057;28;20220;-40
2023/03/14 10:08:16;;;;;;;4.30;2.03;;;12.00;99.90;;;;;;5052302;28;20329;-38
2023/03/14 10:10:42;;;;;;;1.00;0.80;;;12.10;99.90;;;;;;5084366;28;20213;-38
2023/03/14 10:13:17;;;;;;;0.83;0.83;;;12.10;99.90;;;;;;5069315;28;20179;-37
2023/03/14 10:15:51;;;;;;;0.63;0.50;;;12.10;99.90;;;;;;5067678;28;20197;-39
2023/03/14 10:18:17;;;;;;;0.40;0.40;;;12.20;99.90;;;;;;5067146;28;20177;-38
2023/03/14 10:20:48;;;;;;;1.70;0.60;;;12.20;99.90;;;;;;5083284;28;20389;-38
2023/03/14 10:23:17;;;;;;;1.27;0.40;;;12.20;99.90;;;;;;5068567;28;20215;-36
2023/03/14 10:25:57;;;;;;;0.50;0.47;;;12.20;99.90;;;;;;5072512;28;20198;-39
2023/03/14 10:28:27;;;;;;;0.83;0.50;;;12.10;99.90;;;;;;5075670;28;20188;-39
2023/03/14 10:30:54;;;;;;;2.13;0.43;;;12.10;99.90;;;;;;5084303;28;20190;-40
2023/03/14 10:33:26;;;;;;;2.00;0.63;;;12.10;99.90;;;;;;5074972;28;20296;-39
2023/03/14 10:36:01;;;;;;;0.50;0.40;;;12.20;99.90;;;;;;5067251;28;20305;-37
2023/03/14 10:38:35;;;;;;;0.97;0.30;;;12.20;99.90;;;;;;5083686;28;20175;-37
2023/03/14 10:41:03;;;;;;;2.60;0.40;;;12.20;99.90;;;;;;5068781;28;20183;-37
2023/03/14 10:43:34;;;;;;;0.93;0.50;;;12.10;99.90;;;;;;5067575;28;20204;-39
2023/03/14 10:46:15;;;;;;;1.70;0.40;;;12.20;99.90;;;;;;5068836;28;20709;-39
2023/03/14 10:49:04;;;;;;;0.50;0.50;;;12.10;99.90;;;;;;5081194;28;20206;-37
2023/03/14 10:51:30;;;;;;;1.00;0.60;;;12.10;99.90;;;;;;5055321;28;20523;-37
2023/03/14 10:53:57;;;;;;;0.40;0.40;;;12.00;99.90;;;;;;5075329;28;20211;-39
2023/03/14 10:56:25;;;;;;;0.40;0.40;;;12.00;99.90;;;;;;5074371;28;20310;-37
2023/03/14 10:58:55;;;;;;;0.60;0.53;;;11.80;99.90;;;;;;5067827;28;20193;-38
2023/03/14 11:01:55;;;;;;;0.83;0.70;;;11.80;99.90;;;;;;5066249;28;20184;-39
2023/03/14 11:04:42;;;;;;;0.43;0.43;;;11.70;99.90;;;;;;5068920;28;20230;-39
2023/03/14 11:07:32;;;;;;;0.40;0.40;;;11.60;99.90;;;;;;5072454;28;20188;-37
2023/03/14 11:10:19;;;;;;;0.70;0.40;;;11.50;99.90;;;;;;5087871;28;20202;-40
2023/03/14 11:13:06;;;;;;;0.50;0.50;;;11.50;99.90;;;;;;5072223;28;20179;-39
2023/03/14 11:15:45;;;;;;;0.40;0.40;;;11.60;99.90;;;;;;5072512;28;20210;-37
2023/03/14 11:18:36;;;;;;;0.40;0.40;;;11.70;99.90;;;;;;5080757;28;20174;-39
2023/03/14 11:21:12;;;;;;;0.40;0.40;;;11.60;99.90;;;;;;5087953;28;20180;-37
2023/03/14 11:24:02;;;;;;;0.60;0.60;;;11.50;99.90;;;;;;5086800;28;20251;-39
2023/03/14 11:26:58;;;;;;;0.40;0.40;;;11.40;99.90;;;;;;5072108;28;20186;-37
2023/03/14 11:29:41;;;;;;;0.40;0.40;;;11.20;99.90;;;;;;5077995;28;20216;-38
2023/03/14 11:32:19;;;;;;;0.60;0.50;;;11.10;99.90;;;;;;5087300;28;20211;-39
2023/03/14 11:34:51;;;;;;;0.37;0.37;;;11.00;99.90;;;;;;5071733;28;20240;-38
2023/03/14 11:37:41;;;;;;;0.40;0.40;;;10.90;99.90;;;;;;5074760;28;20239;-38
2023/03/14 11:40:26;;;;;;;0.57;0.50;;;10.90;99.90;;;;;;5073869;28;20170;-55
2023/03/14 11:43:17;;;;;;;0.60;0.50;;;10.90;99.90;;;;;;5065038;28;20188;-40
2023/03/14 11:45:43;;;;;;;0.63;0.43;;;10.90;99.90;;;;;;5051670;28;20230;-39
2023/03/14 11:48:27;;;;;;;0.40;0.40;;;10.90;99.90;;;;;;5069903;28;20219;-42
2023/03/14 11:50:57;;;;;;;0.43;0.40;;;10.90;99.90;;;;;;5070850;28;20272;-39
2023/03/14 11:53:38;;;;;;;0.37;0.37;;;10.90;99.90;;;;;;5078474;28;20253;-39
2023/03/14 11:56:16;;;;;;;0.40;0.40;;;10.90;99.90;;;;;;5080972;28;20194;-39
2023/03/14 11:58:54;;;;;;;0.50;0.50;;;10.80;99.90;;;;;;5074992;28;20249;-39
2023/03/14 12:01:22;;;;;;;1.03;0.40;;;10.80;99.90;;;;;;5075812;28;20187;-41
2023/03/14 12:04:05;;;;;;;3.87;2.07;;;10.70;99.90;;;;;;5088492;28;20173;-38
2023/03/14 12:06:50;;;;;;;1.43;1.13;;;10.60;99.90;;;;;;5089367;28;20189;-38
2023/03/14 12:09:19;;;;;;;1.00;0.57;;;10.60;99.90;;;;;;5075004;28;20534;-39
2023/03/14 12:11:56;;;;;;;1.23;0.90;;;10.40;99.90;;;;;;5085870;28;20316;-39
2023/03/14 12:14:29;;;;;;;0.50;0.50;;;10.20;99.90;;;;;;5083730;28;20189;-41
2023/03/14 12:17:07;;;;;;;0.60;0.60;;;10.10;99.90;;;;;;5070877;28;20216;-38
2023/03/14 12:19:39;;;;;;;1.70;0.50;;;9.90;99.90;;;;;;5073774;28;20177;-39
2023/03/14 12:22:21;;;;;;;0.40;0.40;;;9.70;99.90;;;;;;5065224;28;20182;-41
2023/03/14 12:25:16;;;;;;;0.70;0.40;;;9.80;99.90;;;;;;5079206;28;20196;-39
2023/03/14 12:27:48;;;;;;;0.70;0.60;;;9.80;99.90;;;;;;5085076;28;20271;-40
2023/03/14 12:30:27;;;;;;;0.50;0.50;;;9.80;99.90;;;;;;5073018;28;20197;-39
2023/03/14 12:33:17;;;;;;;0.60;0.60;;;9.80;99.90;;;;;;5089052;28;20183;-39
2023/03/14 12:35:51;;;;;;;0.80;0.60;;;10.00;99.90;;;;;;5127585;22;20222;-30
2023/03/14 12:38:31;;;;;;;0.70;0.50;;;10.00;99.90;;;;;;5044105;28;20183;-30
2023/03/14 12:40:57;;;;;;;0.60;0.57;;;10.10;99.90;;;;;;5021151;28;20171;-31
2023/03/14 12:43:33;;;;;;;0.50;0.50;;;10.10;99.90;;;;;;5006627;28;20185;-31
2023/03/14 12:46:17;;;;;;;1.13;0.60;;;10.20;99.90;;;;;;5041640;28;20237;-29
2023/03/14 12:49:00;;;;;;;0.77;0.60;;;10.30;99.90;;;;;;5026958;28;20182;-31
2023/03/14 12:51:39;;;;;;;0.73;0.47;;;10.50;99.90;;;;;;5042370;28;20190;-30
2023/03/14 12:54:27;;;;;;;0.50;0.50;;;10.70;99.90;;;;;;5044405;28;20302;-30
2023/03/14 12:57:11;;;;;;;0.73;0.70;;;10.80;99.90;;;;;;5026182;28;20203;-30
2023/03/14 12:59:46;;;;;;;1.33;0.90;;;10.80;99.90;;;;;;5026967;28;20198;-30
2023/03/14 13:02:28;;;;;;;1.10;0.70;;;10.80;99.90;;;;;;5033322;28;20205;-31
2023/03/14 13:05:11;;;;;;;1.13;0.70;;;10.70;99.90;;;;;;5034339;28;20245;-31
2023/03/14 13:07:44;;;;;;;3.53;0.80;;;10.60;99.90;;;;;;5029595;28;20206;-31
2023/03/14 13:10:09;;;;;;;0.70;0.50;;;10.40;99.90;;;;;;5033708;28;20198;-29
2023/03/14 13:13:08;;;;;;;1.83;0.80;;;10.30;99.90;;;;;;5032388;28;20171;-30
2023/03/14 13:15:38;;;;;;;0.93;0.87;;;10.30;99.90;;;;;;5032692;28;20198;-31
2023/03/14 13:18:16;;;;;;;2.43;1.27;;;10.40;99.90;;;;;;5025393;28;20242;-31